createdAt,value
2022-10-17T00:01:00.521Z,95506.53
2022-10-17T00:03:28.687Z,95501.88
2022-10-17T00:05:57.897Z,95502.75
2022-10-17T00:08:27.476Z,95504.53
2022-10-17T00:10:59.912Z,95507.00
2022-10-17T00:13:28.025Z,95498.25
2022-10-17T00:15:56.053Z,95503.94
2022-10-17T00:18:23.884Z,95502.81
2022-10-17T00:20:51.734Z,95505.19
2022-10-17T00:23:19.666Z,95506.50
2022-10-17T00:25:48.717Z,95504.97
2022-10-17T00:28:17.156Z,95507.25
2022-10-17T00:30:44.849Z,95508.84
2022-10-17T00:33:12.542Z,95503.63
2022-10-17T00:35:40.218Z,95510.72
2022-10-17T00:38:07.851Z,95509.66
2022-10-17T00:40:35.654Z,95514.53
2022-10-17T00:43:04.774Z,95511.22
2022-10-17T00:45:33.020Z,95509.56
2022-10-17T00:48:02.310Z,95513.56
2022-10-17T00:50:30.204Z,95522.28
2022-10-17T00:53:00.921Z,95515.59
2022-10-17T00:55:31.458Z,95517.16
2022-10-17T00:57:59.623Z,95509.78
2022-10-17T01:00:28.674Z,95515.72
2022-10-17T01:02:56.390Z,95512.56
2022-10-17T01:05:24.345Z,95510.88
2022-10-17T01:07:54.231Z,95511.13
2022-10-17T01:12:58.830Z,95513.75
2022-10-17T01:15:40.147Z,95507.72
2022-10-17T01:18:15.257Z,95506.03
2022-10-17T01:21:01.598Z,95507.94
2022-10-17T01:23:39.891Z,95502.50
2022-10-17T01:26:17.157Z,95498.09
2022-10-17T01:29:22.453Z,95492.91
2022-10-17T01:31:56.299Z,95496.44
2022-10-17T01:34:30.767Z,95503.19
2022-10-17T01:37:01.888Z,95493.03
2022-10-17T01:39:38.493Z,95494.91
2022-10-17T01:42:14.129Z,95498.09
2022-10-17T01:44:47.838Z,95496.84
2022-10-17T01:47:20.729Z,95494.81
2022-10-17T01:49:51.097Z,95490.19
2022-10-17T01:52:21.816Z,95503.59
2022-10-17T01:54:52.952Z,95497.31
2022-10-17T01:57:25.242Z,95509.88
2022-10-17T01:59:54.279Z,95504.44
2022-10-17T02:02:24.537Z,95512.00
2022-10-17T02:04:53.232Z,95508.00
2022-10-17T02:07:20.944Z,95506.91
2022-10-17T02:09:48.711Z,95502.06
2022-10-17T02:12:39.709Z,95514.50
2022-10-17T02:15:25.604Z,95510.94
2022-10-17T02:17:59.329Z,95513.19
2022-10-17T02:20:31.251Z,95506.66
2022-10-17T02:23:02.725Z,95509.63
2022-10-17T02:25:36.543Z,95504.19
2022-10-17T02:28:10.755Z,95503.72
2022-10-17T02:30:43.151Z,95505.97
2022-10-17T02:33:14.615Z,95509.75
2022-10-17T02:35:46.779Z,95501.44
2022-10-17T02:38:14.652Z,95496.72
2022-10-17T02:40:43.195Z,95497.56
2022-10-17T02:43:11.092Z,95502.19
2022-10-17T02:45:39.358Z,95498.84
2022-10-17T02:48:09.414Z,95502.31
2022-10-17T02:50:46.132Z,95507.00
2022-10-17T02:53:16.404Z,95509.59
2022-10-17T02:55:49.070Z,95510.44
2022-10-17T02:58:21.001Z,95514.59
2022-10-17T03:00:48.911Z,95507.97
2022-10-17T03:03:21.313Z,95510.53
2022-10-17T03:05:50.497Z,95506.75
2022-10-17T03:08:18.171Z,95517.66
2022-10-17T03:10:45.931Z,95520.38
2022-10-17T03:13:13.741Z,95513.75
2022-10-17T03:15:41.653Z,95521.53
2022-10-17T03:18:09.638Z,95523.91
2022-10-17T03:20:37.449Z,95510.75
2022-10-17T03:23:06.596Z,95519.19
2022-10-17T03:25:34.391Z,95518.31
2022-10-17T03:28:02.227Z,95516.19
2022-10-17T03:30:30.142Z,95518.69
2022-10-17T03:32:58.657Z,95523.19
2022-10-17T03:35:26.418Z,95520.91
2022-10-17T03:37:54.216Z,95528.72
2022-10-17T03:40:23.221Z,95533.59
2022-10-17T03:42:50.916Z,95526.69
2022-10-17T03:45:18.564Z,95542.81
2022-10-17T03:47:46.328Z,95535.09
2022-10-17T03:50:14.006Z,95536.84
2022-10-17T03:52:41.657Z,95540.28
2022-10-17T03:55:09.570Z,95539.41
2022-10-17T03:57:41.105Z,95537.75
2022-10-17T04:00:12.328Z,95540.31
2022-10-17T04:02:40.120Z,95541.19
2022-10-17T04:05:09.187Z,95550.16
2022-10-17T04:07:37.234Z,95557.25
2022-10-17T04:10:05.447Z,95552.06
2022-10-17T04:12:33.194Z,95553.13
2022-10-17T04:15:02.408Z,95553.22
2022-10-17T04:17:35.783Z,95552.84
2022-10-17T04:20:06.526Z,95554.97
2022-10-17T04:22:34.325Z,95553.28
2022-10-17T04:25:02.032Z,95556.69
2022-10-17T04:27:29.778Z,95556.69
2022-10-17T04:29:57.409Z,95553.75
2022-10-17T04:32:26.906Z,95552.94
2022-10-17T04:34:54.825Z,95553.28
2022-10-17T04:37:22.469Z,95562.50
2022-10-17T04:39:50.210Z,95553.75
2022-10-17T04:42:17.992Z,95554.34
2022-10-17T04:44:45.630Z,95556.47
2022-10-17T04:47:13.322Z,95556.69
2022-10-17T04:49:42.422Z,95555.06
2022-10-17T04:52:10.140Z,95565.31
2022-10-17T04:54:37.805Z,95566.38
2022-10-17T04:57:05.587Z,95565.31
2022-10-17T04:59:33.223Z,95558.22
2022-10-17T05:02:00.937Z,95563.66
2022-10-17T05:04:28.597Z,95563.03
2022-10-17T05:06:57.749Z,95571.69
2022-10-17T05:09:25.518Z,95560.03
2022-10-17T05:11:53.413Z,95561.09
2022-10-17T05:14:21.085Z,95563.47
2022-10-17T05:16:48.846Z,95571.00
2022-10-17T05:19:17.200Z,95567.69
2022-10-17T05:21:45.171Z,95572.59
2022-10-17T05:24:15.948Z,95565.31
2022-10-17T05:26:43.593Z,95572.06
2022-10-17T05:29:11.305Z,95568.13
2022-10-17T05:31:39.200Z,95569.28
2022-10-17T05:34:09.053Z,95574.06
2022-10-17T05:36:39.245Z,95579.06
2022-10-17T05:39:07.033Z,95576.56
2022-10-17T05:41:36.109Z,95581.19
2022-10-17T05:44:05.569Z,95583.31
2022-10-17T05:46:34.485Z,95584.34
2022-10-17T05:49:05.296Z,95583.75
2022-10-17T05:51:35.540Z,95599.41
2022-10-17T05:54:03.313Z,95596.44
2022-10-17T05:56:31.009Z,95598.25
2022-10-17T05:59:01.016Z,95608.69
2022-10-17T06:01:29.005Z,95610.34
2022-10-17T06:03:56.723Z,95610.50
2022-10-17T06:06:24.547Z,95614.06
2022-10-17T06:08:52.205Z,95614.66
2022-10-17T06:11:19.787Z,95616.53
2022-10-17T06:13:47.489Z,95613.69
2022-10-17T06:16:16.582Z,95612.00
2022-10-17T06:18:44.290Z,95619.34
2022-10-17T06:21:13.003Z,95606.56
2022-10-17T06:23:40.689Z,95612.16
2022-10-17T06:26:08.493Z,95615.03
2022-10-17T06:28:37.179Z,95616.84
2022-10-17T06:31:08.570Z,95622.22
2022-10-17T06:33:38.487Z,95618.38
2022-10-17T06:36:07.751Z,95623.97
2022-10-17T06:38:36.082Z,95629.34
2022-10-17T06:41:07.886Z,95636.97
2022-10-17T06:43:35.604Z,95638.31
2022-10-17T06:46:03.273Z,95644.28
2022-10-17T06:48:30.966Z,95644.00
2022-10-17T06:51:01.601Z,95642.03
2022-10-17T06:53:29.947Z,95656.75
2022-10-17T06:56:01.379Z,95658.19
2022-10-17T06:58:29.408Z,95651.22
2022-10-17T07:01:01.012Z,95653.84
2022-10-17T07:03:29.453Z,95661.47
2022-10-17T07:05:57.698Z,95666.13
2022-10-17T07:08:27.100Z,95672.22
2022-10-17T07:10:55.399Z,95672.00
2022-10-17T07:13:23.109Z,95681.03
2022-10-17T07:15:50.975Z,95684.63
2022-10-17T07:18:18.733Z,95684.19
2022-10-17T07:20:53.988Z,95685.84
2022-10-17T07:23:21.716Z,95685.59
2022-10-17T07:25:50.949Z,95696.31
2022-10-17T07:28:18.631Z,95697.50
2022-10-17T07:30:49.313Z,95706.03
2022-10-17T07:33:18.448Z,95705.53
2022-10-17T07:35:46.093Z,95715.13
2022-10-17T07:38:13.763Z,95721.38
2022-10-17T07:40:41.394Z,95716.97
2022-10-17T07:43:10.466Z,95711.94
2022-10-17T07:45:38.214Z,95714.06
2022-10-17T07:48:06.476Z,95711.75
2022-10-17T07:50:34.203Z,95720.13
2022-10-17T07:53:01.998Z,95717.63
2022-10-17T07:55:29.648Z,95717.31
2022-10-17T07:57:58.213Z,95724.16
2022-10-17T08:00:27.367Z,95720.34
2022-10-17T08:02:55.137Z,95724.72
2022-10-17T08:05:22.848Z,95721.16
2022-10-17T08:07:50.471Z,95720.88
2022-10-17T08:10:18.691Z,95716.75
2022-10-17T08:12:46.486Z,95721.72
2022-10-17T08:15:14.307Z,95719.72
2022-10-17T08:17:43.336Z,95712.28
2022-10-17T08:20:12.291Z,95714.69
2022-10-17T08:22:39.971Z,95711.25
2022-10-17T08:25:08.768Z,95714.66
2022-10-17T08:27:36.871Z,95720.88
2022-10-17T08:30:05.012Z,95724.63
2022-10-17T08:32:32.927Z,95727.22
2022-10-17T08:35:02.298Z,95716.38
2022-10-17T08:37:31.004Z,95724.72
2022-10-17T08:39:59.432Z,95731.38
2022-10-17T08:42:47.003Z,95727.66
2022-10-17T08:45:21.769Z,95728.09
2022-10-17T08:47:52.537Z,95728.91
2022-10-17T08:50:26.958Z,95728.34
2022-10-17T08:52:56.957Z,95724.25
2022-10-17T08:55:31.006Z,95719.09
2022-10-17T08:57:58.858Z,95725.16
2022-10-17T09:00:27.480Z,95726.25
2022-10-17T09:03:09.595Z,95724.09
2022-10-17T09:05:47.189Z,95729.66
2022-10-17T09:08:33.982Z,95729.41
2022-10-17T09:11:04.307Z,95730.84
2022-10-17T09:13:43.314Z,95729.22
2022-10-17T09:16:31.053Z,95743.53
2022-10-17T09:19:03.105Z,95737.72
2022-10-17T09:21:40.799Z,95729.47
2022-10-17T09:24:16.170Z,95734.94
2022-10-17T09:26:45.921Z,95734.63
2022-10-17T09:29:20.181Z,95738.47
2022-10-17T09:31:52.527Z,95737.00
2022-10-17T09:34:22.951Z,95737.22
2022-10-17T09:36:54.403Z,95735.47
2022-10-17T09:39:26.056Z,95737.66
2022-10-17T09:41:55.620Z,95737.56
2022-10-17T09:44:24.773Z,95737.84
2022-10-17T09:47:08.862Z,95730.50
2022-10-17T09:49:39.297Z,95749.94
2022-10-17T09:52:12.946Z,95744.84
2022-10-17T09:54:47.190Z,95747.75
2022-10-17T09:57:16.214Z,95749.34
2022-10-17T09:59:46.101Z,95753.41
2022-10-17T10:02:22.085Z,95753.00
2022-10-17T10:05:05.593Z,95759.53
2022-10-17T10:07:37.397Z,95757.78
2022-10-17T10:10:07.327Z,95753.66
2022-10-17T10:12:37.423Z,95749.56
2022-10-17T10:15:32.058Z,95761.09
2022-10-17T10:17:59.764Z,95762.59
2022-10-17T10:20:31.652Z,95752.41
2022-10-17T10:23:14.915Z,95748.44
2022-10-17T10:25:56.088Z,95749.81
2022-10-17T10:28:27.860Z,95749.81
2022-10-17T10:30:56.742Z,95748.66
2022-10-17T10:33:27.359Z,95747.97
2022-10-17T10:35:57.817Z,95752.03
2022-10-17T10:38:26.763Z,95755.84
2022-10-17T10:40:56.120Z,95744.19
2022-10-17T10:43:29.662Z,95746.28
2022-10-17T10:45:57.357Z,95744.69
2022-10-17T10:48:26.382Z,95740.16
2022-10-17T10:50:57.449Z,95738.50
2022-10-17T10:53:38.349Z,95733.81
2022-10-17T10:56:11.964Z,95735.69
2022-10-17T10:58:43.741Z,95739.22
2022-10-17T11:01:16.713Z,95730.91
2022-10-17T11:03:54.702Z,95736.75
2022-10-17T11:06:25.628Z,95739.53
2022-10-17T11:09:15.909Z,95736.75
2022-10-17T11:11:46.478Z,95737.25
2022-10-17T11:14:17.726Z,95726.53
2022-10-17T11:16:48.896Z,95728.09
2022-10-17T11:19:21.621Z,95727.22
2022-10-17T11:21:52.873Z,95729.19
2022-10-17T11:24:25.495Z,95733.28
2022-10-17T11:26:56.936Z,95725.44
2022-10-17T11:29:29.658Z,95724.69
2022-10-17T11:31:59.488Z,95717.94
2022-10-17T11:34:28.613Z,95734.28
2022-10-17T11:37:00.945Z,95736.50
2022-10-17T11:39:32.558Z,95730.97
2022-10-17T11:42:04.335Z,95737.94
2022-10-17T11:44:35.478Z,95731.81
2022-10-17T11:47:06.323Z,95725.94
2022-10-17T11:49:39.947Z,95730.97
2022-10-17T11:52:37.836Z,95735.63
2022-10-17T11:55:12.580Z,95739.78
2022-10-17T11:57:52.697Z,95727.84
2022-10-17T12:00:28.936Z,95732.59
2022-10-17T12:03:05.218Z,95727.22
2022-10-17T12:05:38.165Z,95732.81
2022-10-17T12:08:11.456Z,95720.44
2022-10-17T12:10:46.952Z,95711.94
2022-10-17T12:13:54.630Z,95714.00
2022-10-17T12:16:44.658Z,95717.53
2022-10-17T12:19:32.422Z,95712.94
2022-10-17T12:22:03.664Z,95717.69
2022-10-17T12:24:40.408Z,95718.06
2022-10-17T12:27:33.378Z,95715.47
2022-10-17T12:30:02.217Z,95710.06
2022-10-17T12:32:36.841Z,95713.22
2022-10-17T12:35:20.279Z,95712.72
2022-10-17T12:38:28.252Z,95709.13
2022-10-17T12:41:02.856Z,95709.28
2022-10-17T12:46:45.234Z,95709.75
2022-10-17T12:49:39.127Z,95702.53
2022-10-17T12:52:19.883Z,95706.31
2022-10-17T12:55:00.234Z,95709.44
2022-10-17T12:57:39.120Z,95713.84
2022-10-17T13:00:16.698Z,95701.84
2022-10-17T13:02:44.623Z,95710.44
2022-10-17T13:05:15.905Z,95708.19
2022-10-17T13:07:45.457Z,95707.78
2022-10-17T13:10:21.663Z,95713.00
2022-10-17T13:12:50.111Z,95706.75
2022-10-17T13:15:21.127Z,95702.03
2022-10-17T13:17:56.975Z,95704.94
2022-10-17T13:20:30.611Z,95711.84
2022-10-17T13:22:59.979Z,95713.91
2022-10-17T13:25:28.652Z,95711.91
2022-10-17T13:28:09.662Z,95708.84
2022-10-17T13:30:38.728Z,95712.50
2022-10-17T13:33:20.089Z,95707.25
2022-10-17T13:35:59.887Z,95709.78
2022-10-17T13:38:29.969Z,95704.03
2022-10-17T13:41:10.791Z,95704.13
2022-10-17T13:43:45.982Z,95706.28
2022-10-17T13:46:36.905Z,95712.25
2022-10-17T13:49:10.587Z,95711.22
2022-10-17T13:51:39.005Z,95703.72
2022-10-17T13:54:19.004Z,95708.81
2022-10-17T13:56:46.907Z,95719.69
2022-10-17T13:59:21.912Z,95716.44
2022-10-17T14:01:52.229Z,95712.06
2022-10-17T14:04:20.646Z,95709.91
2022-10-17T14:06:51.127Z,95710.69
2022-10-17T14:09:22.707Z,95712.47
2022-10-17T14:12:00.085Z,95708.41
2022-10-17T14:14:28.044Z,95713.56
2022-10-17T14:16:58.305Z,95713.19
2022-10-17T14:19:28.869Z,95710.78
2022-10-17T14:21:57.773Z,95715.72
2022-10-17T14:24:31.453Z,95709.47
2022-10-17T14:27:00.481Z,95711.09
2022-10-17T14:29:30.512Z,95709.66
2022-10-17T14:32:04.304Z,95713.69
2022-10-17T14:34:35.044Z,95710.53
2022-10-17T14:37:03.538Z,95716.72
2022-10-17T14:39:31.336Z,95714.75
2022-10-17T14:42:04.068Z,95716.34
2022-10-17T14:44:33.638Z,95711.78
2022-10-17T14:47:30.246Z,95727.88
2022-10-17T14:49:53.860Z,95719.25
2022-10-17T14:52:32.457Z,95723.97
2022-10-17T14:55:01.837Z,95729.97
2022-10-17T14:57:43.021Z,95735.09
2022-10-17T15:00:15.427Z,95739.75
2022-10-17T15:02:44.969Z,95729.84
2022-10-17T15:05:13.550Z,95732.13
2022-10-17T15:07:41.537Z,95736.75
2022-10-17T15:10:22.172Z,95724.00
2022-10-17T15:12:58.802Z,95737.97
2022-10-17T15:15:33.110Z,95739.44
2022-10-17T15:18:02.625Z,95734.78
2022-10-17T15:20:30.885Z,95738.28
2022-10-17T15:22:59.500Z,95738.16
2022-10-17T15:25:27.851Z,95741.13
2022-10-17T15:27:55.836Z,95736.19
2022-10-17T15:30:25.425Z,95755.00
2022-10-17T15:32:53.621Z,95747.22
2022-10-17T15:35:23.515Z,95749.06
2022-10-17T15:37:51.534Z,95755.31
2022-10-17T15:40:21.302Z,95757.13
2022-10-17T15:42:49.117Z,95752.09
2022-10-17T15:45:18.925Z,95761.34
2022-10-17T15:47:51.805Z,95757.19
2022-10-17T15:50:19.896Z,95762.66
2022-10-17T15:52:50.896Z,95763.94
2022-10-17T15:55:19.204Z,95767.16
2022-10-17T15:57:48.240Z,95776.63
2022-10-17T16:00:19.551Z,95770.34
2022-10-17T16:02:47.965Z,95773.16
2022-10-17T16:05:18.020Z,95776.00
2022-10-17T16:07:46.882Z,95768.63
2022-10-17T16:10:16.879Z,95777.09
2022-10-17T16:12:44.655Z,95777.22
2022-10-17T16:15:15.025Z,95785.06
2022-10-17T16:17:43.862Z,95784.56
2022-10-17T16:20:12.544Z,95782.72
2022-10-17T16:22:41.703Z,95781.09
2022-10-17T16:25:20.405Z,95778.69
2022-10-17T16:27:48.402Z,95789.34
2022-10-17T16:32:54.276Z,95783.41
2022-10-17T16:35:23.919Z,95787.31
2022-10-17T16:37:51.788Z,95786.38
2022-10-17T16:40:20.917Z,95794.44
2022-10-17T16:42:48.607Z,95784.22
2022-10-17T16:45:19.516Z,95779.25
2022-10-17T16:47:48.358Z,95782.63
2022-10-17T16:50:17.210Z,95791.19
2022-10-17T16:52:45.002Z,95793.38
2022-10-17T16:55:12.865Z,95792.00
2022-10-17T17:00:18.283Z,95801.97
2022-10-17T17:02:48.627Z,95798.69
2022-10-17T17:05:16.491Z,95798.09
2022-10-17T17:07:44.291Z,95793.16
2022-10-17T17:10:12.142Z,95804.16
2022-10-17T17:12:41.380Z,95808.00
2022-10-17T17:15:09.714Z,95808.75
2022-10-17T17:17:49.513Z,95813.97
2022-10-17T17:20:19.102Z,95814.97
2022-10-17T17:22:46.783Z,95826.03
2022-10-17T17:25:14.646Z,95824.97
2022-10-17T17:27:43.831Z,95827.69
2022-10-17T17:30:12.665Z,95827.19
2022-10-17T17:32:40.480Z,95829.94
2022-10-17T17:35:09.459Z,95828.78
2022-10-17T17:37:37.353Z,95837.84
2022-10-17T17:40:06.578Z,95842.25
2022-10-17T17:42:34.269Z,95850.50
2022-10-17T17:45:03.762Z,95841.59
2022-10-17T17:47:31.875Z,95846.78
2022-10-17T17:49:59.759Z,95851.69
2022-10-17T17:52:27.738Z,95849.16
2022-10-17T17:54:55.647Z,95853.50
2022-10-17T17:57:23.423Z,95854.28
2022-10-17T17:59:52.218Z,95851.75
2022-10-17T18:02:21.350Z,95849.19
2022-10-17T18:04:49.710Z,95850.78
2022-10-17T18:07:17.863Z,95854.25
2022-10-17T18:09:45.585Z,95854.00
2022-10-17T18:12:13.259Z,95854.53
2022-10-17T18:14:40.931Z,95849.75
2022-10-17T18:17:08.687Z,95848.34
2022-10-17T18:19:37.823Z,95855.34
2022-10-17T18:22:05.542Z,95851.44
2022-10-17T18:24:33.219Z,95860.59
2022-10-17T18:27:01.275Z,95859.84
2022-10-17T18:29:29.507Z,95855.94
2022-10-17T18:31:57.317Z,95861.22
2022-10-17T18:34:25.439Z,95863.72
2022-10-17T18:36:54.649Z,95858.47
2022-10-17T18:39:22.611Z,95865.88
2022-10-17T18:41:50.368Z,95860.97
2022-10-17T18:44:18.099Z,95862.97
2022-10-17T18:49:14.973Z,95860.31
2022-10-17T18:51:43.231Z,95855.38
2022-10-17T18:54:16.960Z,95861.03
2022-10-17T18:56:45.039Z,95863.28
2022-10-17T18:59:12.660Z,95860.59
2022-10-17T19:01:40.433Z,95859.03
2022-10-17T19:04:08.127Z,95864.19
2022-10-17T19:06:35.786Z,95860.31
2022-10-17T19:09:05.960Z,95851.09
2022-10-17T19:11:36.192Z,95854.28
2022-10-17T19:14:05.562Z,95851.28
2022-10-17T19:16:35.468Z,95853.19
2022-10-17T19:19:04.917Z,95865.34
2022-10-17T19:21:32.630Z,95862.28
2022-10-17T19:24:01.755Z,95859.53
2022-10-17T19:26:31.046Z,95860.72
2022-10-17T19:29:00.596Z,95870.06
2022-10-17T19:31:29.996Z,95867.41
2022-10-17T19:33:57.753Z,95863.44
2022-10-17T19:36:30.468Z,95875.66
2022-10-17T19:39:02.087Z,95875.06
2022-10-17T19:41:29.769Z,95860.59
2022-10-17T19:43:57.507Z,95864.59
2022-10-17T19:46:27.905Z,95869.53
2022-10-17T19:48:55.986Z,95864.75
2022-10-17T19:51:25.313Z,95868.38
2022-10-17T19:53:54.183Z,95869.84
2022-10-17T19:56:22.858Z,95868.69
2022-10-17T19:58:50.975Z,95863.69
2022-10-17T20:01:20.505Z,95873.56
2022-10-17T20:03:49.915Z,95866.50
2022-10-17T20:06:18.478Z,95871.66
2022-10-17T20:08:46.433Z,95867.84
2022-10-17T20:11:15.511Z,95882.28
2022-10-17T20:13:43.366Z,95888.53
2022-10-17T20:16:13.879Z,95895.06
2022-10-17T20:18:41.784Z,95896.41
2022-10-17T20:21:12.438Z,95895.66
2022-10-17T20:23:40.737Z,95901.03
2022-10-17T20:26:25.529Z,95908.75
2022-10-17T20:28:54.315Z,95900.44
2022-10-17T20:31:22.211Z,95905.91
2022-10-17T20:33:49.882Z,95908.06
2022-10-17T20:36:23.245Z,95898.69
2022-10-17T20:38:54.185Z,95902.50
2022-10-17T20:41:21.847Z,95901.44
2022-10-17T20:43:51.471Z,95909.03
2022-10-17T20:46:29.773Z,95913.44
2022-10-17T20:49:04.644Z,95902.50
2022-10-17T20:51:34.544Z,95910.34
2022-10-17T20:54:03.260Z,95909.78
2022-10-17T20:56:32.828Z,95905.59
2022-10-17T20:59:02.014Z,95918.94
2022-10-17T21:01:30.453Z,95919.75
2022-10-17T21:04:06.173Z,95916.44
2022-10-17T21:06:39.804Z,95914.19
2022-10-17T21:09:07.938Z,95911.44
2022-10-17T21:11:35.612Z,95908.97
2022-10-17T21:14:04.888Z,95909.66
2022-10-17T21:16:34.957Z,95900.63
2022-10-17T21:19:03.041Z,95896.72
2022-10-17T21:21:33.585Z,95908.25
2022-10-17T21:24:04.872Z,95901.22
2022-10-17T21:26:33.777Z,95900.16
2022-10-17T21:29:05.402Z,95906.09
2022-10-17T21:31:34.179Z,95900.19
2022-10-17T21:34:08.660Z,95901.47
2022-10-17T21:36:36.544Z,95906.13
2022-10-17T21:41:34.058Z,95904.69
2022-10-17T21:44:03.594Z,95900.31
2022-10-17T21:46:31.720Z,95902.31
2022-10-17T21:49:00.186Z,95909.94
2022-10-17T21:51:28.194Z,95904.47
2022-10-17T21:53:57.131Z,95898.41
2022-10-17T21:56:28.757Z,95899.47
2022-10-17T21:58:57.790Z,95898.88
2022-10-17T22:01:26.980Z,95898.28
2022-10-17T22:03:55.967Z,95897.25
2022-10-17T22:06:39.322Z,95897.09
2022-10-17T22:09:10.269Z,95896.97
2022-10-17T22:11:39.541Z,95900.22
2022-10-17T22:14:08.886Z,95905.78
2022-10-17T22:16:36.536Z,95899.13
2022-10-17T22:19:06.475Z,95899.34
2022-10-17T22:21:35.274Z,95890.00
2022-10-17T22:24:04.983Z,95889.38
2022-10-17T22:26:33.889Z,95894.00
2022-10-17T22:29:04.296Z,95882.84
2022-10-17T22:31:32.281Z,95890.00
2022-10-17T22:34:00.163Z,95889.63
2022-10-17T22:36:27.892Z,95887.00
2022-10-17T22:38:55.544Z,95888.31
2022-10-17T22:41:23.233Z,95885.44
2022-10-17T22:43:50.944Z,95887.81
2022-10-17T22:46:19.971Z,95889.34
2022-10-17T22:48:47.632Z,95875.09
2022-10-17T22:51:15.499Z,95878.88
2022-10-17T22:53:43.202Z,95881.63
2022-10-17T22:56:14.137Z,95877.72
2022-10-17T22:58:42.243Z,95878.19
2022-10-17T23:01:12.713Z,95878.63
2022-10-17T23:03:41.831Z,95880.31
2022-10-17T23:06:09.531Z,95872.72
2022-10-17T23:08:37.761Z,95868.06
2022-10-17T23:11:06.253Z,95871.66
2022-10-17T23:13:33.966Z,95862.25
2022-10-17T23:16:01.727Z,95868.19
2022-10-17T23:20:58.373Z,95859.97
2022-10-17T23:23:26.052Z,95861.16
2022-10-17T23:25:53.961Z,95856.03
2022-10-17T23:28:21.980Z,95858.97
2022-10-17T23:30:49.737Z,95857.50
2022-10-17T23:33:17.392Z,95861.56
2022-10-17T23:35:45.159Z,95861.56
2022-10-17T23:38:14.197Z,95848.16
2022-10-17T23:40:42.057Z,95853.13
2022-10-17T23:43:09.801Z,95851.59
2022-10-17T23:45:37.575Z,95843.41
2022-10-17T23:48:05.986Z,95846.47
2022-10-17T23:50:33.632Z,95843.63
2022-10-17T23:53:01.264Z,95843.03
2022-10-17T23:55:30.493Z,95844.16
2022-10-17T23:57:58.132Z,95840.03
